sensor_id;sensor_type;location;lat;lon;timestamp;P1;durP1;ratioP1;P2;durP2;ratioP2
63906;SDS011;50075;49.484;11.238;2023-03-21T00:02:08;138.50;;;9.73;;
63906;SDS011;50075;49.484;11.238;2023-03-21T00:04:34;124.63;;;10.07;;
63906;SDS011;50075;49.484;11.238;2023-03-21T00:06:59;143.13;;;11.38;;
63906;SDS011;50075;49.484;11.238;2023-03-21T00:09:24;118.65;;;9.75;;
63906;SDS011;50075;49.484;11.238;2023-03-21T00:11:50;90.97;;;8.70;;
63906;SDS011;50075;49.484;11.238;2023-03-21T00:14:15;138.13;;;10.98;;
63906;SDS011;50075;49.484;11.238;2023-03-21T00:16:44;106.80;;;9.52;;
63906;SDS011;50075;49.484;11.238;2023-03-21T00:19:09;119.47;;;9.20;;
63906;SDS011;50075;49.484;11.238;2023-03-21T00:21:36;140.52;;;10.18;;
63906;SDS011;50075;49.484;11.238;2023-03-21T00:24:02;99.82;;;8.02;;
63906;SDS011;50075;49.484;11.238;2023-03-21T00:26:28;152.27;;;10.50;;
63906;SDS011;50075;49.484;11.238;2023-03-21T00:28:53;125.63;;;9.90;;
63906;SDS011;50075;49.484;11.238;2023-03-21T00:31:18;124.50;;;9.55;;
63906;SDS011;50075;49.484;11.238;2023-03-21T00:33:43;136.15;;;9.18;;
63906;SDS011;50075;49.484;11.238;2023-03-21T00:36:09;107.82;;;9.07;;
63906;SDS011;50075;49.484;11.238;2023-03-21T00:38:35;106.32;;;8.52;;
63906;SDS011;50075;49.484;11.238;2023-03-21T00:41:07;147.52;;;10.80;;
63906;SDS011;50075;49.484;11.238;2023-03-21T00:43:33;110.75;;;8.82;;
63906;SDS011;50075;49.484;11.238;2023-03-21T00:45:59;149.55;;;10.32;;
63906;SDS011;50075;49.484;11.238;2023-03-21T00:48:24;113.28;;;9.23;;
63906;SDS011;50075;49.484;11.238;2023-03-21T00:50:50;99.72;;;8.80;;
63906;SDS011;50075;49.484;11.238;2023-03-21T00:53:16;109.60;;;8.20;;
63906;SDS011;50075;49.484;11.238;2023-03-21T00:55:41;94.63;;;7.50;;
63906;SDS011;50075;49.484;11.238;2023-03-21T00:58:07;119.45;;;9.77;;
63906;SDS011;50075;49.484;11.238;2023-03-21T01:00:32;124.63;;;9.32;;
63906;SDS011;50075;49.484;11.238;2023-03-21T01:03:00;111.05;;;9.82;;
63906;SDS011;50075;49.484;11.238;2023-03-21T01:05:30;142.55;;;10.48;;
63906;SDS011;50075;49.484;11.238;2023-03-21T01:08:15;114.43;;;9.50;;
63906;SDS011;50075;49.484;11.238;2023-03-21T01:10:43;103.35;;;9.52;;
63906;SDS011;50075;49.484;11.238;2023-03-21T01:13:09;124.88;;;9.40;;
63906;SDS011;50075;49.484;11.238;2023-03-21T01:15:35;138.65;;;9.90;;
63906;SDS011;50075;49.484;11.238;2023-03-21T01:18:00;106.70;;;8.63;;
63906;SDS011;50075;49.484;11.238;2023-03-21T01:20:25;113.93;;;9.23;;
63906;SDS011;50075;49.484;11.238;2023-03-21T01:22:51;120.85;;;9.55;;
63906;SDS011;50075;49.484;11.238;2023-03-21T01:25:16;118.57;;;9.40;;
63906;SDS011;50075;49.484;11.238;2023-03-21T01:27:41;126.28;;;9.10;;
63906;SDS011;50075;49.484;11.238;2023-03-21T01:30:07;125.80;;;9.27;;
63906;SDS011;50075;49.484;11.238;2023-03-21T01:32:32;114.32;;;9.23;;
63906;SDS011;50075;49.484;11.238;2023-03-21T01:34:57;142.20;;;10.50;;
63906;SDS011;50075;49.484;11.238;2023-03-21T01:37:23;118.18;;;8.68;;
63906;SDS011;50075;49.484;11.238;2023-03-21T01:39:50;104.88;;;9.20;;
63906;SDS011;50075;49.484;11.238;2023-03-21T01:42:15;129.05;;;9.73;;
63906;SDS011;50075;49.484;11.238;2023-03-21T01:44:54;122.80;;;10.52;;
63906;SDS011;50075;49.484;11.238;2023-03-21T01:47:20;148.65;;;11.15;;
63906;SDS011;50075;49.484;11.238;2023-03-21T01:49:46;102.03;;;9.40;;
63906;SDS011;50075;49.484;11.238;2023-03-21T01:52:14;127.78;;;9.63;;
63906;SDS011;50075;49.484;11.238;2023-03-21T01:54:41;122.05;;;9.38;;
63906;SDS011;50075;49.484;11.238;2023-03-21T01:57:08;141.98;;;10.57;;
63906;SDS011;50075;49.484;11.238;2023-03-21T01:59:37;119.85;;;9.85;;
63906;SDS011;50075;49.484;11.238;2023-03-21T02:02:05;109.22;;;8.38;;
63906;SDS011;50075;49.484;11.238;2023-03-21T02:04:32;155.52;;;10.68;;
63906;SDS011;50075;49.484;11.238;2023-03-21T02:06:58;120.72;;;9.30;;
63906;SDS011;50075;49.484;11.238;2023-03-21T02:09:26;115.80;;;9.43;;
63906;SDS011;50075;49.484;11.238;2023-03-21T02:11:52;144.57;;;10.23;;
63906;SDS011;50075;49.484;11.238;2023-03-21T02:14:18;120.55;;;8.88;;
63906;SDS011;50075;49.484;11.238;2023-03-21T02:19:24;136.82;;;10.05;;
63906;SDS011;50075;49.484;11.238;2023-03-21T02:37:06;130.32;;;9.82;;
63906;SDS011;50075;49.484;11.238;2023-03-21T02:42:11;146.98;;;10.20;;
63906;SDS011;50075;49.484;11.238;2023-03-21T02:44:42;133.07;;;9.27;;
63906;SDS011;50075;49.484;11.238;2023-03-21T02:52:00;114.88;;;9.00;;
63906;SDS011;50075;49.484;11.238;2023-03-21T02:54:27;139.38;;;9.80;;
63906;SDS011;50075;49.484;11.238;2023-03-21T02:56:53;148.80;;;9.98;;
63906;SDS011;50075;49.484;11.238;2023-03-21T02:59:20;121.55;;;9.43;;
63906;SDS011;50075;49.484;11.238;2023-03-21T03:01:46;149.45;;;10.18;;
63906;SDS011;50075;49.484;11.238;2023-03-21T03:04:18;123.85;;;9.45;;
63906;SDS011;50075;49.484;11.238;2023-03-21T03:07:08;136.07;;;9.90;;
63906;SDS011;50075;49.484;11.238;2023-03-21T03:09:33;128.75;;;8.27;;
63906;SDS011;50075;49.484;11.238;2023-03-21T03:12:06;170.23;;;10.45;;
63906;SDS011;50075;49.484;11.238;2023-03-21T03:22:28;140.38;;;9.65;;
63906;SDS011;50075;49.484;11.238;2023-03-21T03:24:59;143.80;;;9.63;;
63906;SDS011;50075;49.484;11.238;2023-03-21T03:27:28;158.35;;;10.32;;
63906;SDS011;50075;49.484;11.238;2023-03-21T03:29:56;130.07;;;9.13;;
63906;SDS011;50075;49.484;11.238;2023-03-21T03:32:27;135.35;;;10.02;;
63906;SDS011;50075;49.484;11.238;2023-03-21T03:37:21;114.05;;;8.82;;
63906;SDS011;50075;49.484;11.238;2023-03-21T03:39:56;122.43;;;9.90;;
63906;SDS011;50075;49.484;11.238;2023-03-21T03:42:27;129.15;;;10.00;;
63906;SDS011;50075;49.484;11.238;2023-03-21T03:44:53;137.02;;;10.15;;
63906;SDS011;50075;49.484;11.238;2023-03-21T03:47:20;111.00;;;9.13;;
63906;SDS011;50075;49.484;11.238;2023-03-21T03:49:49;129.15;;;9.93;;
63906;SDS011;50075;49.484;11.238;2023-03-21T03:54:42;130.60;;;10.17;;
63906;SDS011;50075;49.484;11.238;2023-03-21T03:57:08;148.15;;;10.00;;
63906;SDS011;50075;49.484;11.238;2023-03-21T03:59:37;126.22;;;9.93;;
63906;SDS011;50075;49.484;11.238;2023-03-21T04:02:02;126.32;;;9.88;;
63906;SDS011;50075;49.484;11.238;2023-03-21T04:04:28;146.98;;;9.70;;
63906;SDS011;50075;49.484;11.238;2023-03-21T04:06:53;134.43;;;10.45;;
63906;SDS011;50075;49.484;11.238;2023-03-21T04:09:19;154.85;;;10.88;;
63906;SDS011;50075;49.484;11.238;2023-03-21T04:11:44;135.60;;;9.48;;
63906;SDS011;50075;49.484;11.238;2023-03-21T04:14:10;134.85;;;10.63;;
63906;SDS011;50075;49.484;11.238;2023-03-21T04:16:35;166.75;;;11.63;;
63906;SDS011;50075;49.484;11.238;2023-03-21T04:19:00;145.70;;;10.47;;
63906;SDS011;50075;49.484;11.238;2023-03-21T04:21:26;132.65;;;10.88;;
63906;SDS011;50075;49.484;11.238;2023-03-21T04:23:53;120.22;;;10.27;;
63906;SDS011;50075;49.484;11.238;2023-03-21T04:26:19;111.15;;;9.70;;
63906;SDS011;50075;49.484;11.238;2023-03-21T04:28:45;141.75;;;10.63;;
63906;SDS011;50075;49.484;11.238;2023-03-21T04:31:10;129.38;;;10.40;;
63906;SDS011;50075;49.484;11.238;2023-03-21T04:33:37;98.80;;;9.43;;
63906;SDS011;50075;49.484;11.238;2023-03-21T04:36:03;130.00;;;10.85;;
63906;SDS011;50075;49.484;11.238;2023-03-21T04:38:30;138.55;;;10.82;;
63906;SDS011;50075;49.484;11.238;2023-03-21T04:40:58;135.57;;;11.13;;
63906;SDS011;50075;49.484;11.238;2023-03-21T04:43:24;104.70;;;9.23;;
63906;SDS011;50075;49.484;11.238;2023-03-21T04:45:49;108.65;;;9.38;;
63906;SDS011;50075;49.484;11.238;2023-03-21T04:48:15;128.88;;;9.80;;
63906;SDS011;50075;49.484;11.238;2023-03-21T04:50:42;96.47;;;9.00;;
63906;SDS011;50075;49.484;11.238;2023-03-21T04:53:07;107.85;;;9.57;;
63906;SDS011;50075;49.484;11.238;2023-03-21T04:55:32;149.70;;;10.97;;
63906;SDS011;50075;49.484;11.238;2023-03-21T04:57:57;140.57;;;10.88;;
63906;SDS011;50075;49.484;11.238;2023-03-21T05:00:23;124.63;;;10.13;;
63906;SDS011;50075;49.484;11.238;2023-03-21T05:02:49;131.45;;;10.65;;
63906;SDS011;50075;49.484;11.238;2023-03-21T05:05:15;129.13;;;10.57;;
63906;SDS011;50075;49.484;11.238;2023-03-21T05:07:40;139.73;;;10.43;;
63906;SDS011;50075;49.484;11.238;2023-03-21T05:10:06;138.45;;;10.98;;
63906;SDS011;50075;49.484;11.238;2023-03-21T05:12:32;129.60;;;10.45;;
63906;SDS011;50075;49.484;11.238;2023-03-21T05:14:57;153.25;;;11.07;;
63906;SDS011;50075;49.484;11.238;2023-03-21T05:17:23;112.03;;;9.57;;
63906;SDS011;50075;49.484;11.238;2023-03-21T05:19:49;107.10;;;9.43;;
63906;SDS011;50075;49.484;11.238;2023-03-21T05:22:14;94.03;;;9.50;;
63906;SDS011;50075;49.484;11.238;2023-03-21T05:24:43;100.55;;;9.43;;
63906;SDS011;50075;49.484;11.238;2023-03-21T05:27:14;127.35;;;10.07;;
63906;SDS011;50075;49.484;11.238;2023-03-21T05:30:08;115.97;;;10.45;;
63906;SDS011;50075;49.484;11.238;2023-03-21T05:32:34;114.72;;;9.43;;
63906;SDS011;50075;49.484;11.238;2023-03-21T05:35:00;132.65;;;10.02;;
63906;SDS011;50075;49.484;11.238;2023-03-21T05:37:25;146.40;;;10.45;;
63906;SDS011;50075;49.484;11.238;2023-03-21T05:39:50;107.43;;;9.97;;
63906;SDS011;50075;49.484;11.238;2023-03-21T05:42:16;123.20;;;10.30;;
63906;SDS011;50075;49.484;11.238;2023-03-21T05:44:42;115.10;;;9.75;;
63906;SDS011;50075;49.484;11.238;2023-03-21T05:47:07;121.05;;;9.45;;
63906;SDS011;50075;49.484;11.238;2023-03-21T05:49:33;116.93;;;10.03;;
63906;SDS011;50075;49.484;11.238;2023-03-21T05:51:58;127.03;;;10.68;;
63906;SDS011;50075;49.484;11.238;2023-03-21T05:54:23;97.75;;;9.85;;
63906;SDS011;50075;49.484;11.238;2023-03-21T05:56:48;107.07;;;10.00;;
63906;SDS011;50075;49.484;11.238;2023-03-21T05:59:14;106.00;;;10.18;;
63906;SDS011;50075;49.484;11.238;2023-03-21T06:01:40;134.02;;;11.10;;
63906;SDS011;50075;49.484;11.238;2023-03-21T06:04:05;141.32;;;11.57;;
63906;SDS011;50075;49.484;11.238;2023-03-21T06:06:31;120.50;;;10.70;;
63906;SDS011;50075;49.484;11.238;2023-03-21T06:08:56;94.22;;;9.35;;
63906;SDS011;50075;49.484;11.238;2023-03-21T06:11:22;130.90;;;11.05;;
63906;SDS011;50075;49.484;11.238;2023-03-21T06:13:48;121.38;;;10.65;;
63906;SDS011;50075;49.484;11.238;2023-03-21T06:16:14;118.55;;;10.35;;
63906;SDS011;50075;49.484;11.238;2023-03-21T06:18:39;111.47;;;10.63;;
63906;SDS011;50075;49.484;11.238;2023-03-21T06:21:05;130.85;;;11.43;;
63906;SDS011;50075;49.484;11.238;2023-03-21T06:23:30;126.47;;;10.93;;
63906;SDS011;50075;49.484;11.238;2023-03-21T06:25:55;122.57;;;10.95;;
63906;SDS011;50075;49.484;11.238;2023-03-21T06:28:21;117.15;;;10.82;;
63906;SDS011;50075;49.484;11.238;2023-03-21T06:30:46;136.43;;;11.55;;
63906;SDS011;50075;49.484;11.238;2023-03-21T06:33:11;127.00;;;10.43;;
63906;SDS011;50075;49.484;11.238;2023-03-21T06:35:37;101.67;;;9.80;;
63906;SDS011;50075;49.484;11.238;2023-03-21T06:38:02;101.13;;;10.73;;
63906;SDS011;50075;49.484;11.238;2023-03-21T06:40:27;106.75;;;9.70;;
63906;SDS011;50075;49.484;11.238;2023-03-21T06:42:52;129.20;;;10.53;;
63906;SDS011;50075;49.484;11.238;2023-03-21T06:45:18;116.03;;;10.15;;
63906;SDS011;50075;49.484;11.238;2023-03-21T06:47:43;104.97;;;10.32;;
63906;SDS011;50075;49.484;11.238;2023-03-21T06:50:08;123.27;;;11.13;;
63906;SDS011;50075;49.484;11.238;2023-03-21T06:52:34;108.95;;;11.00;;
63906;SDS011;50075;49.484;11.238;2023-03-21T06:55:00;116.82;;;11.57;;
63906;SDS011;50075;49.484;11.238;2023-03-21T06:57:25;117.60;;;10.63;;
63906;SDS011;50075;49.484;11.238;2023-03-21T06:59:50;100.43;;;10.87;;
63906;SDS011;50075;49.484;11.238;2023-03-21T07:02:15;113.13;;;10.70;;
63906;SDS011;50075;49.484;11.238;2023-03-21T07:04:41;97.03;;;10.10;;
63906;SDS011;50075;49.484;11.238;2023-03-21T07:07:06;107.28;;;10.40;;
63906;SDS011;50075;49.484;11.238;2023-03-21T07:09:32;108.03;;;10.23;;
63906;SDS011;50075;49.484;11.238;2023-03-21T07:11:57;112.53;;;10.65;;
63906;SDS011;50075;49.484;11.238;2023-03-21T07:14:22;105.95;;;11.35;;
63906;SDS011;50075;49.484;11.238;2023-03-21T07:16:47;114.78;;;10.93;;
63906;SDS011;50075;49.484;11.238;2023-03-21T07:19:13;87.78;;;9.20;;
63906;SDS011;50075;49.484;11.238;2023-03-21T07:21:39;139.05;;;11.63;;
63906;SDS011;50075;49.484;11.238;2023-03-21T07:24:05;114.93;;;10.00;;
63906;SDS011;50075;49.484;11.238;2023-03-21T07:26:30;94.82;;;8.95;;
63906;SDS011;50075;49.484;11.238;2023-03-21T07:28:55;141.45;;;11.27;;
63906;SDS011;50075;49.484;11.238;2023-03-21T07:31:20;127.28;;;10.25;;
63906;SDS011;50075;49.484;11.238;2023-03-21T07:33:49;75.70;;;7.78;;
63906;SDS011;50075;49.484;11.238;2023-03-21T07:36:15;107.63;;;8.25;;
63906;SDS011;50075;49.484;11.238;2023-03-21T07:38:43;97.38;;;7.68;;
63906;SDS011;50075;49.484;11.238;2023-03-21T07:41:09;126.55;;;8.95;;
63906;SDS011;50075;49.484;11.238;2023-03-21T07:43:34;88.93;;;7.63;;
63906;SDS011;50075;49.484;11.238;2023-03-21T07:46:00;103.30;;;8.18;;
63906;SDS011;50075;49.484;11.238;2023-03-21T07:48:25;124.57;;;8.37;;
63906;SDS011;50075;49.484;11.238;2023-03-21T07:50:51;101.40;;;8.05;;
63906;SDS011;50075;49.484;11.238;2023-03-21T07:53:16;95.68;;;7.90;;
63906;SDS011;50075;49.484;11.238;2023-03-21T07:55:41;104.35;;;7.93;;
63906;SDS011;50075;49.484;11.238;2023-03-21T07:58:07;84.82;;;7.88;;
63906;SDS011;50075;49.484;11.238;2023-03-21T08:00:32;138.02;;;9.70;;
63906;SDS011;50075;49.484;11.238;2023-03-21T08:02:57;110.13;;;8.27;;
63906;SDS011;50075;49.484;11.238;2023-03-21T08:05:24;112.25;;;8.43;;
63906;SDS011;50075;49.484;11.238;2023-03-21T08:07:50;102.95;;;8.02;;
63906;SDS011;50075;49.484;11.238;2023-03-21T08:10:15;92.63;;;7.38;;
63906;SDS011;50075;49.484;11.238;2023-03-21T08:12:41;109.10;;;7.53;;
63906;SDS011;50075;49.484;11.238;2023-03-21T08:15:06;112.28;;;7.57;;
63906;SDS011;50075;49.484;11.238;2023-03-21T08:17:32;100.82;;;7.43;;
63906;SDS011;50075;49.484;11.238;2023-03-21T08:19:57;114.97;;;8.10;;
63906;SDS011;50075;49.484;11.238;2023-03-21T08:22:22;102.40;;;6.97;;
63906;SDS011;50075;49.484;11.238;2023-03-21T08:24:48;131.93;;;8.07;;
63906;SDS011;50075;49.484;11.238;2023-03-21T08:27:13;94.50;;;7.10;;
63906;SDS011;50075;49.484;11.238;2023-03-21T08:29:38;82.70;;;6.50;;
63906;SDS011;50075;49.484;11.238;2023-03-21T08:32:06;126.93;;;8.43;;
63906;SDS011;50075;49.484;11.238;2023-03-21T08:34:31;108.68;;;7.53;;
63906;SDS011;50075;49.484;11.238;2023-03-21T08:36:57;80.03;;;6.13;;
63906;SDS011;50075;49.484;11.238;2023-03-21T08:39:22;91.83;;;6.60;;
63906;SDS011;50075;49.484;11.238;2023-03-21T08:41:48;59.40;;;5.38;;
63906;SDS011;50075;49.484;11.238;2023-03-21T08:44:14;93.55;;;6.78;;
63906;SDS011;50075;49.484;11.238;2023-03-21T08:46:40;96.32;;;7.35;;
63906;SDS011;50075;49.484;11.238;2023-03-21T08:49:06;90.67;;;6.80;;
63906;SDS011;50075;49.484;11.238;2023-03-21T08:51:31;98.05;;;7.40;;
63906;SDS011;50075;49.484;11.238;2023-03-21T08:53:57;108.57;;;8.02;;
63906;SDS011;50075;49.484;11.238;2023-03-21T08:56:22;82.63;;;6.63;;
63906;SDS011;50075;49.484;11.238;2023-03-21T08:58:48;90.00;;;6.87;;
63906;SDS011;50075;49.484;11.238;2023-03-21T09:01:13;99.25;;;7.40;;
63906;SDS011;50075;49.484;11.238;2023-03-21T09:03:40;104.78;;;7.35;;
63906;SDS011;50075;49.484;11.238;2023-03-21T09:06:05;89.18;;;6.53;;
63906;SDS011;50075;49.484;11.238;2023-03-21T09:08:34;77.97;;;6.30;;
63906;SDS011;50075;49.484;11.238;2023-03-21T09:10:59;123.13;;;8.07;;
63906;SDS011;50075;49.484;11.238;2023-03-21T09:13:25;92.63;;;6.78;;
63906;SDS011;50075;49.484;11.238;2023-03-21T09:15:50;78.53;;;6.50;;
63906;SDS011;50075;49.484;11.238;2023-03-21T09:18:17;77.10;;;6.47;;
63906;SDS011;50075;49.484;11.238;2023-03-21T09:20:47;93.35;;;6.97;;
63906;SDS011;50075;49.484;11.238;2023-03-21T09:23:14;114.93;;;7.57;;
63906;SDS011;50075;49.484;11.238;2023-03-21T09:25:39;105.53;;;7.28;;
63906;SDS011;50075;49.484;11.238;2023-03-21T09:28:05;102.15;;;7.38;;
63906;SDS011;50075;49.484;11.238;2023-03-21T09:30:31;88.20;;;7.05;;
63906;SDS011;50075;49.484;11.238;2023-03-21T09:32:58;85.90;;;6.93;;
63906;SDS011;50075;49.484;11.238;2023-03-21T09:35:23;99.38;;;7.72;;
63906;SDS011;50075;49.484;11.238;2023-03-21T09:37:50;93.82;;;7.25;;
63906;SDS011;50075;49.484;11.238;2023-03-21T09:40:30;86.57;;;6.97;;
63906;SDS011;50075;49.484;11.238;2023-03-21T09:43:07;84.38;;;7.13;;
63906;SDS011;50075;49.484;11.238;2023-03-21T09:45:39;107.00;;;7.90;;
63906;SDS011;50075;49.484;11.238;2023-03-21T09:48:11;108.82;;;7.97;;
63906;SDS011;50075;49.484;11.238;2023-03-21T09:50:41;96.45;;;7.32;;
63906;SDS011;50075;49.484;11.238;2023-03-21T09:53:09;107.25;;;7.88;;
63906;SDS011;50075;49.484;11.238;2023-03-21T09:55:37;104.65;;;7.57;;
63906;SDS011;50075;49.484;11.238;2023-03-21T09:58:04;117.18;;;8.30;;
63906;SDS011;50075;49.484;11.238;2023-03-21T10:00:33;117.43;;;8.10;;
63906;SDS011;50075;49.484;11.238;2023-03-21T10:03:00;103.70;;;7.22;;
63906;SDS011;50075;49.484;11.238;2023-03-21T10:05:30;113.22;;;8.05;;
63906;SDS011;50075;49.484;11.238;2023-03-21T10:10:24;95.53;;;7.15;;
63906;SDS011;50075;49.484;11.238;2023-03-21T10:12:51;120.82;;;8.57;;
63906;SDS011;50075;49.484;11.238;2023-03-21T10:15:18;83.82;;;6.70;;
63906;SDS011;50075;49.484;11.238;2023-03-21T10:17:46;85.95;;;6.75;;
63906;SDS011;50075;49.484;11.238;2023-03-21T10:20:14;87.38;;;6.50;;
63906;SDS011;50075;49.484;11.238;2023-03-21T10:22:40;76.00;;;5.97;;
63906;SDS011;50075;49.484;11.238;2023-03-21T10:25:07;95.28;;;7.15;;
63906;SDS011;50075;49.484;11.238;2023-03-21T10:27:35;89.70;;;6.70;;
63906;SDS011;50075;49.484;11.238;2023-03-21T10:30:01;117.60;;;8.15;;
63906;SDS011;50075;49.484;11.238;2023-03-21T10:32:26;110.95;;;7.53;;
63906;SDS011;50075;49.484;11.238;2023-03-21T10:34:53;108.25;;;7.63;;
63906;SDS011;50075;49.484;11.238;2023-03-21T10:37:19;102.38;;;7.25;;
63906;SDS011;50075;49.484;11.238;2023-03-21T10:39:48;102.30;;;7.20;;
63906;SDS011;50075;49.484;11.238;2023-03-21T10:42:19;107.07;;;7.38;;
63906;SDS011;50075;49.484;11.238;2023-03-21T10:44:47;91.20;;;6.53;;
63906;SDS011;50075;49.484;11.238;2023-03-21T10:47:14;76.95;;;5.95;;
63906;SDS011;50075;49.484;11.238;2023-03-21T10:49:42;82.18;;;6.18;;
63906;SDS011;50075;49.484;11.238;2023-03-21T10:52:10;93.10;;;6.93;;
63906;SDS011;50075;49.484;11.238;2023-03-21T10:54:37;109.13;;;7.55;;
63906;SDS011;50075;49.484;11.238;2023-03-21T10:57:03;168.83;;;10.33;;
63906;SDS011;50075;49.484;11.238;2023-03-21T10:59:50;103.28;;;7.13;;
63906;SDS011;50075;49.484;11.238;2023-03-21T11:04:49;108.68;;;7.72;;
63906;SDS011;50075;49.484;11.238;2023-03-21T11:07:15;87.38;;;6.50;;
63906;SDS011;50075;49.484;11.238;2023-03-21T11:12:12;95.78;;;6.43;;
63906;SDS011;50075;49.484;11.238;2023-03-21T11:19:40;87.43;;;6.18;;
63906;SDS011;50075;49.484;11.238;2023-03-21T11:22:06;89.87;;;6.23;;
63906;SDS011;50075;49.484;11.238;2023-03-21T11:24:31;88.40;;;6.47;;
63906;SDS011;50075;49.484;11.238;2023-03-21T11:26:57;89.15;;;6.13;;
63906;SDS011;50075;49.484;11.238;2023-03-21T11:29:28;110.05;;;7.00;;
63906;SDS011;50075;49.484;11.238;2023-03-21T11:32:39;95.40;;;6.50;;
63906;SDS011;50075;49.484;11.238;2023-03-21T11:34:42;105.90;;;7.07;;
63906;SDS011;50075;49.484;11.238;2023-03-21T11:37:15;87.78;;;6.07;;
63906;SDS011;50075;49.484;11.238;2023-03-21T11:39:41;107.28;;;6.55;;
63906;SDS011;50075;49.484;11.238;2023-03-21T11:42:28;107.18;;;6.82;;
63906;SDS011;50075;49.484;11.238;2023-03-21T11:44:57;125.95;;;7.30;;
63906;SDS011;50075;49.484;11.238;2023-03-21T11:47:23;106.72;;;6.50;;
63906;SDS011;50075;49.484;11.238;2023-03-21T11:49:49;72.28;;;5.68;;
63906;SDS011;50075;49.484;11.238;2023-03-21T11:52:27;94.13;;;6.10;;
63906;SDS011;50075;49.484;11.238;2023-03-21T11:54:59;105.80;;;6.82;;
63906;SDS011;50075;49.484;11.238;2023-03-21T11:57:43;98.00;;;6.20;;
63906;SDS011;50075;49.484;11.238;2023-03-21T12:05:36;114.75;;;7.10;;
63906;SDS011;50075;49.484;11.238;2023-03-21T12:21:47;97.10;;;6.15;;
63906;SDS011;50075;49.484;11.238;2023-03-21T12:23:56;105.05;;;7.57;;
63906;SDS011;50075;49.484;11.238;2023-03-21T12:26:25;87.57;;;6.30;;
63906;SDS011;50075;49.484;11.238;2023-03-21T12:34:04;124.43;;;7.50;;
63906;SDS011;50075;49.484;11.238;2023-03-21T12:44:22;89.57;;;5.80;;
63906;SDS011;50075;49.484;11.238;2023-03-21T12:46:51;92.60;;;6.20;;
63906;SDS011;50075;49.484;11.238;2023-03-21T12:49:25;105.72;;;6.95;;
63906;SDS011;50075;49.484;11.238;2023-03-21T12:52:00;110.50;;;7.00;;
63906;SDS011;50075;49.484;11.238;2023-03-21T12:54:28;101.13;;;6.35;;
63906;SDS011;50075;49.484;11.238;2023-03-21T13:02:33;84.68;;;5.95;;
63906;SDS011;50075;49.484;11.238;2023-03-21T13:05:04;93.30;;;5.85;;
63906;SDS011;50075;49.484;11.238;2023-03-21T13:07:35;133.40;;;8.00;;
63906;SDS011;50075;49.484;11.238;2023-03-21T13:10:02;94.35;;;5.80;;
63906;SDS011;50075;49.484;11.238;2023-03-21T13:15:21;89.22;;;6.40;;
63906;SDS011;50075;49.484;11.238;2023-03-21T13:17:58;116.25;;;7.10;;
63906;SDS011;50075;49.484;11.238;2023-03-21T13:23:09;76.47;;;6.20;;
63906;SDS011;50075;49.484;11.238;2023-03-21T13:25:44;73.30;;;5.57;;
63906;SDS011;50075;49.484;11.238;2023-03-21T13:30:44;80.75;;;5.63;;
63906;SDS011;50075;49.484;11.238;2023-03-21T13:33:14;121.43;;;7.47;;
63906;SDS011;50075;49.484;11.238;2023-03-21T13:35:42;99.30;;;6.20;;
63906;SDS011;50075;49.484;11.238;2023-03-21T13:40:44;78.53;;;5.57;;
63906;SDS011;50075;49.484;11.238;2023-03-21T13:45:55;80.68;;;5.95;;
63906;SDS011;50075;49.484;11.238;2023-03-21T13:48:27;80.60;;;5.13;;
63906;SDS011;50075;49.484;11.238;2023-03-21T13:50:59;95.05;;;6.32;;
63906;SDS011;50075;49.484;11.238;2023-03-21T13:53:35;92.63;;;6.32;;
63906;SDS011;50075;49.484;11.238;2023-03-21T13:56:08;95.72;;;6.03;;
63906;SDS011;50075;49.484;11.238;2023-03-21T14:03:43;108.57;;;6.57;;
63906;SDS011;50075;49.484;11.238;2023-03-21T14:06:09;84.20;;;5.78;;
63906;SDS011;50075;49.484;11.238;2023-03-21T14:08:35;86.50;;;5.88;;
63906;SDS011;50075;49.484;11.238;2023-03-21T14:11:01;106.53;;;6.57;;
63906;SDS011;50075;49.484;11.238;2023-03-21T14:13:28;80.22;;;5.50;;
63906;SDS011;50075;49.484;11.238;2023-03-21T14:15:55;85.07;;;5.68;;
63906;SDS011;50075;49.484;11.238;2023-03-21T14:18:23;63.25;;;5.05;;
63906;SDS011;50075;49.484;11.238;2023-03-21T14:20:56;82.82;;;6.15;;
63906;SDS011;50075;49.484;11.238;2023-03-21T14:23:22;84.78;;;6.28;;
63906;SDS011;50075;49.484;11.238;2023-03-21T14:25:48;69.78;;;5.25;;
63906;SDS011;50075;49.484;11.238;2023-03-21T14:28:14;115.25;;;6.90;;
63906;SDS011;50075;49.484;11.238;2023-03-21T14:30:41;91.32;;;6.15;;
63906;SDS011;50075;49.484;11.238;2023-03-21T14:33:11;93.53;;;6.20;;
63906;SDS011;50075;49.484;11.238;2023-03-21T14:35:38;103.55;;;6.35;;
63906;SDS011;50075;49.484;11.238;2023-03-21T14:38:05;100.95;;;6.50;;
63906;SDS011;50075;49.484;11.238;2023-03-21T14:40:31;98.78;;;6.57;;
63906;SDS011;50075;49.484;11.238;2023-03-21T14:42:57;54.60;;;4.95;;
63906;SDS011;50075;49.484;11.238;2023-03-21T14:45:28;89.05;;;6.57;;
63906;SDS011;50075;49.484;11.238;2023-03-21T14:50:20;69.78;;;4.93;;
63906;SDS011;50075;49.484;11.238;2023-03-21T14:52:47;94.78;;;6.30;;
63906;SDS011;50075;49.484;11.238;2023-03-21T14:55:13;84.45;;;5.47;;
63906;SDS011;50075;49.484;11.238;2023-03-21T14:57:39;83.80;;;5.85;;
63906;SDS011;50075;49.484;11.238;2023-03-21T15:00:05;128.45;;;7.55;;
63906;SDS011;50075;49.484;11.238;2023-03-21T15:02:37;94.60;;;6.00;;
63906;SDS011;50075;49.484;11.238;2023-03-21T15:05:08;117.63;;;7.03;;
63906;SDS011;50075;49.484;11.238;2023-03-21T15:07:34;95.50;;;6.05;;
63906;SDS011;50075;49.484;11.238;2023-03-21T15:10:04;106.38;;;6.15;;
63906;SDS011;50075;49.484;11.238;2023-03-21T15:12:30;104.95;;;6.72;;
63906;SDS011;50075;49.484;11.238;2023-03-21T15:14:57;98.03;;;7.53;;
63906;SDS011;50075;49.484;11.238;2023-03-21T15:17:22;121.00;;;7.53;;
63906;SDS011;50075;49.484;11.238;2023-03-21T15:19:48;84.35;;;5.47;;
63906;SDS011;50075;49.484;11.238;2023-03-21T15:22:30;100.05;;;6.32;;
63906;SDS011;50075;49.484;11.238;2023-03-21T15:25:01;81.28;;;5.00;;
63906;SDS011;50075;49.484;11.238;2023-03-21T15:27:27;116.40;;;6.68;;
63906;SDS011;50075;49.484;11.238;2023-03-21T15:29:54;81.85;;;4.97;;
63906;SDS011;50075;49.484;11.238;2023-03-21T15:32:24;92.63;;;5.63;;
63906;SDS011;50075;49.484;11.238;2023-03-21T15:34:53;108.85;;;6.43;;
63906;SDS011;50075;49.484;11.238;2023-03-21T15:37:26;81.35;;;4.88;;
63906;SDS011;50075;49.484;11.238;2023-03-21T15:39:52;106.75;;;6.25;;
63906;SDS011;50075;49.484;11.238;2023-03-21T15:42:28;80.38;;;5.13;;
63906;SDS011;50075;49.484;11.238;2023-03-21T15:44:55;119.43;;;6.95;;
63906;SDS011;50075;49.484;11.238;2023-03-21T15:50:06;119.00;;;6.75;;
63906;SDS011;50075;49.484;11.238;2023-03-21T15:52:32;103.28;;;6.32;;
63906;SDS011;50075;49.484;11.238;2023-03-21T15:54:57;112.05;;;6.53;;
63906;SDS011;50075;49.484;11.238;2023-03-21T15:57:29;82.93;;;5.15;;
63906;SDS011;50075;49.484;11.238;2023-03-21T16:02:39;67.03;;;4.70;;
63906;SDS011;50075;49.484;11.238;2023-03-21T16:05:18;67.57;;;4.40;;